createdAt,value
2018-04-11T00:00:18.443Z,0.00
2018-04-11T00:01:18.440Z,0.00
2018-04-11T00:02:18.435Z,0.00
2018-04-11T00:03:18.423Z,0.00
2018-04-11T00:04:18.420Z,0.00
2018-04-11T00:05:18.417Z,0.00
2018-04-11T00:06:18.400Z,0.00
2018-04-11T00:07:18.407Z,0.00
2018-04-11T00:08:18.384Z,0.00
2018-04-11T00:09:18.381Z,0.00
2018-04-11T00:10:18.368Z,0.00
2018-04-11T00:11:18.364Z,0.00
2018-04-11T00:12:18.361Z,0.00
2018-04-11T00:13:18.352Z,0.00
2018-04-11T00:14:18.340Z,0.00
2018-04-11T00:15:18.344Z,0.00
2018-04-11T00:16:18.331Z,0.00
2018-04-11T00:17:18.331Z,0.00
2018-04-11T00:18:18.305Z,0.00
2018-04-11T00:19:18.304Z,0.00
2018-04-11T00:20:18.304Z,0.00
2018-04-11T00:21:18.293Z,0.00
2018-04-11T00:22:18.286Z,0.00
2018-04-11T00:23:18.299Z,0.00
2018-04-11T00:24:18.293Z,0.00
2018-04-11T00:25:18.267Z,0.00
2018-04-11T00:26:18.260Z,0.00
2018-04-11T00:27:18.242Z,0.00
2018-04-11T00:28:18.232Z,0.00
2018-04-11T00:29:18.224Z,0.00
2018-04-11T00:30:18.214Z,0.00
2018-04-11T00:31:18.216Z,0.00
2018-04-11T00:32:18.197Z,0.00
2018-04-11T00:33:18.190Z,0.00
2018-04-11T00:34:18.189Z,0.00
2018-04-11T00:35:18.169Z,0.00
2018-04-11T00:36:18.178Z,0.00
2018-04-11T00:37:18.164Z,0.00
2018-04-11T00:38:18.155Z,0.00
2018-04-11T00:39:18.136Z,0.00
2018-04-11T00:40:18.139Z,0.00
2018-04-11T00:41:18.124Z,0.00
2018-04-11T00:42:18.119Z,0.00
2018-04-11T00:43:18.110Z,0.00
2018-04-11T00:44:18.100Z,0.00
2018-04-11T00:45:18.088Z,0.00
2018-04-11T00:46:18.084Z,0.00
2018-04-11T00:47:18.089Z,0.00
2018-04-11T00:48:18.068Z,0.00
2018-04-11T00:49:18.060Z,0.00
2018-04-11T00:50:18.049Z,0.00
2018-04-11T00:51:18.051Z,0.00
2018-04-11T00:52:18.068Z,0.00
2018-04-11T00:53:18.029Z,0.00
2018-04-11T00:54:18.023Z,0.00
2018-04-11T00:55:18.002Z,0.00
2018-04-11T00:56:18.007Z,0.00
2018-04-11T00:57:18.000Z,0.00
2018-04-11T00:58:17.992Z,0.00
2018-04-11T00:59:17.978Z,0.00
2018-04-11T01:00:17.972Z,0.00
2018-04-11T01:01:17.987Z,0.00
2018-04-11T01:02:17.958Z,0.00
2018-04-11T01:03:17.953Z,0.00
2018-04-11T01:04:17.940Z,0.00
2018-04-11T01:05:17.935Z,0.00
2018-04-11T01:06:17.918Z,0.00
2018-04-11T01:07:17.920Z,0.00
2018-04-11T01:08:17.911Z,0.00
2018-04-11T01:09:17.895Z,0.00
2018-04-11T01:10:17.875Z,0.00
2018-04-11T01:11:17.878Z,0.00
2018-04-11T01:12:17.878Z,0.00
2018-04-11T01:13:17.862Z,0.00
2018-04-11T01:14:17.852Z,0.00
2018-04-11T01:15:17.849Z,0.00
2018-04-11T01:16:17.837Z,0.00
2018-04-11T01:17:17.830Z,0.00
2018-04-11T01:18:17.835Z,0.00
2018-04-11T01:19:17.832Z,0.00
2018-04-11T01:20:17.804Z,0.00
2018-04-11T01:21:17.809Z,0.00
2018-04-11T01:22:17.817Z,0.00
2018-04-11T01:23:17.786Z,0.00
2018-04-11T01:24:17.774Z,0.00
2018-04-11T01:25:17.761Z,0.00
2018-04-11T01:26:17.765Z,0.00
2018-04-11T01:27:17.749Z,0.00
2018-04-11T01:28:17.745Z,0.00
2018-04-11T01:29:17.734Z,0.00
2018-04-11T02:01:58.756Z,0.00
2018-04-11T02:02:58.709Z,0.00
2018-04-11T02:04:51.661Z,0.00
2018-04-11T02:05:51.622Z,0.00
2018-04-11T02:07:44.562Z,0.00
2018-04-11T02:08:44.525Z,0.00
2018-04-11T02:10:37.427Z,0.00
2018-04-11T02:11:37.394Z,0.00
2018-04-11T02:13:30.321Z,0.00
2018-04-11T02:14:30.280Z,0.00
2018-04-11T02:16:23.318Z,0.00
2018-04-11T02:17:23.202Z,0.00
2018-04-11T02:19:16.115Z,0.00
2018-04-11T02:20:16.088Z,0.00
2018-04-11T02:22:09.028Z,0.00
2018-04-11T02:23:08.984Z,0.00
2018-04-11T02:25:01.936Z,0.00
2018-04-11T02:26:01.912Z,0.00
2018-04-11T02:27:54.882Z,0.00
2018-04-11T02:28:54.885Z,0.00
2018-04-11T02:30:47.794Z,0.00
2018-04-11T02:31:47.756Z,0.00
2018-04-11T02:33:40.745Z,0.00
2018-04-11T02:34:40.723Z,0.00
2018-04-11T02:36:33.659Z,0.00
2018-04-11T02:37:33.616Z,0.00
2018-04-11T02:39:26.536Z,0.00
2018-04-11T02:40:26.509Z,0.00
2018-04-11T02:42:19.460Z,0.00
2018-04-11T02:43:19.433Z,0.00
2018-04-11T02:45:12.421Z,0.00
2018-04-11T02:46:12.381Z,0.00
2018-04-11T02:48:05.344Z,0.00
2018-04-11T02:49:05.318Z,0.00
2018-04-11T02:50:58.326Z,0.00
2018-04-11T02:51:58.225Z,0.00
2018-04-11T02:53:51.162Z,0.00
2018-04-11T02:54:51.135Z,0.00
2018-04-11T02:56:44.093Z,0.00
2018-04-11T02:57:44.061Z,0.00
2018-04-11T02:59:36.991Z,0.00
2018-04-11T03:00:36.982Z,0.00
2018-04-11T03:02:29.930Z,0.00
2018-04-11T03:03:29.891Z,0.00
2018-04-11T03:05:22.874Z,0.00
2018-04-11T03:06:22.845Z,0.00
2018-04-11T03:08:15.765Z,0.00
2018-04-11T03:09:15.726Z,0.00
2018-04-11T03:11:08.691Z,0.00
2018-04-11T03:12:08.661Z,0.00
2018-04-11T03:14:01.597Z,0.00
2018-04-11T03:15:01.589Z,0.00
2018-04-11T03:16:54.590Z,0.00
2018-04-11T03:17:54.573Z,0.00
2018-04-11T03:19:47.501Z,0.00
2018-04-11T03:20:47.465Z,0.00
2018-04-11T03:22:40.460Z,0.00
2018-04-11T03:23:40.425Z,0.00
2018-04-11T03:25:33.348Z,0.00
2018-04-11T03:26:33.309Z,0.00
2018-04-11T03:28:26.282Z,0.00
2018-04-11T03:29:26.253Z,0.00
2018-04-11T03:31:19.173Z,0.00
2018-04-11T03:32:19.135Z,0.00
2018-04-11T03:34:12.086Z,0.00
2018-04-11T03:35:12.054Z,0.00
2018-04-11T03:37:04.977Z,0.00
2018-04-11T03:38:04.944Z,0.00
2018-04-11T03:39:57.898Z,0.00
2018-04-11T03:40:57.870Z,0.00
2018-04-11T03:42:50.884Z,0.00
2018-04-11T03:43:50.861Z,0.00
2018-04-11T03:45:43.795Z,0.00
2018-04-11T03:46:43.760Z,0.00
2018-04-11T03:48:36.688Z,0.00
2018-04-11T03:49:36.655Z,0.00
2018-04-11T03:51:29.640Z,0.00
2018-04-11T03:52:29.616Z,0.00
2018-04-11T03:54:22.564Z,0.00
2018-04-11T03:55:22.514Z,0.00
2018-04-11T03:57:15.425Z,0.00
2018-04-11T03:58:15.399Z,0.00
2018-04-11T04:00:08.394Z,0.00
2018-04-11T04:01:08.373Z,0.00
2018-04-11T04:03:01.298Z,0.00
2018-04-11T04:04:01.267Z,0.00
2018-04-11T04:05:54.206Z,0.00
2018-04-11T04:06:54.192Z,0.00
2018-04-11T04:08:47.147Z,0.00
2018-04-11T04:09:47.107Z,4.00
2018-04-11T04:11:40.045Z,0.00
2018-04-11T04:12:40.016Z,4.00
2018-04-11T04:14:32.984Z,4.00
2018-04-11T04:15:32.966Z,8.00
2018-04-11T04:17:25.917Z,8.00
2018-04-11T04:18:25.901Z,12.00
2018-04-11T04:20:18.811Z,16.00
2018-04-11T04:21:18.788Z,20.00
2018-04-11T04:23:11.735Z,28.00
2018-04-11T04:24:11.695Z,28.00
2018-04-11T04:26:04.642Z,44.00
2018-04-11T04:27:04.620Z,48.00
2018-04-11T04:28:57.532Z,68.00
2018-04-11T04:29:57.509Z,80.00
2018-04-11T04:31:50.410Z,104.00
2018-04-11T04:32:50.390Z,116.00
2018-04-11T04:34:43.306Z,148.00
2018-04-11T04:35:43.296Z,164.00
2018-04-11T04:37:36.222Z,204.00
2018-04-11T04:38:36.193Z,228.00
2018-04-11T04:40:29.136Z,276.00
2018-04-11T04:41:29.116Z,308.00
2018-04-11T04:43:22.074Z,364.00
2018-04-11T04:44:22.006Z,400.00
2018-04-11T04:46:15.062Z,472.00
2018-04-11T04:47:15.031Z,512.00
2018-04-11T04:49:07.997Z,592.00
2018-04-11T04:50:07.964Z,632.00
2018-04-11T04:52:00.948Z,728.00
2018-04-11T04:53:00.905Z,780.00
2018-04-11T04:54:00.902Z,836.00
2018-04-11T04:55:00.912Z,892.00
2018-04-11T04:56:00.892Z,944.00
2018-04-11T04:57:00.879Z,1004.00
2018-04-11T04:58:00.869Z,1060.00
2018-04-11T04:59:00.864Z,1116.00
2018-04-11T05:00:00.849Z,1172.00
2018-04-11T05:01:00.840Z,1232.00
2018-04-11T05:02:00.833Z,1292.00
2018-04-11T05:03:00.836Z,1344.00
2018-04-11T05:04:00.825Z,1400.00
2018-04-11T05:05:00.808Z,1460.00
2018-04-11T05:06:00.799Z,1520.00
2018-04-11T05:07:00.795Z,1580.00
2018-04-11T05:08:00.789Z,1644.00
2018-04-11T05:09:00.772Z,1704.00
2018-04-11T05:10:00.771Z,1764.00
2018-04-11T05:11:00.765Z,1820.00
2018-04-11T05:12:00.774Z,1880.00
2018-04-11T05:13:00.752Z,1936.00
2018-04-11T05:14:00.740Z,2000.00
2018-04-11T05:15:00.727Z,2060.00
2018-04-11T05:16:00.718Z,2124.00
2018-04-11T05:17:00.701Z,2192.00
2018-04-11T05:18:00.711Z,2260.00
2018-04-11T05:19:00.688Z,2352.00
2018-04-11T05:20:00.706Z,2564.00
2018-04-11T05:21:00.678Z,2928.00
2018-04-11T05:22:00.692Z,2992.00
2018-04-11T05:23:00.665Z,2724.00
2018-04-11T05:24:00.653Z,2632.00
2018-04-11T05:25:00.649Z,2688.00
2018-04-11T05:26:00.640Z,2740.00
2018-04-11T05:27:00.638Z,2792.00
2018-04-11T05:28:00.618Z,2848.00
2018-04-11T05:29:00.615Z,2908.00
2018-04-11T05:30:00.609Z,2964.00
2018-04-11T05:31:00.604Z,3020.00
2018-04-11T05:32:00.596Z,3080.00
2018-04-11T05:33:00.583Z,3136.00
2018-04-11T05:34:00.587Z,3192.00
2018-04-11T05:35:00.575Z,3248.00
2018-04-11T05:36:00.565Z,3300.00
2018-04-11T05:37:00.573Z,3348.00
2018-04-11T05:38:00.563Z,3400.00
2018-04-11T05:39:00.606Z,3452.00
2018-04-11T05:40:00.579Z,3504.00
2018-04-11T05:41:00.519Z,3556.00
2018-04-11T05:42:00.519Z,3612.00
2018-04-11T05:43:00.512Z,3664.00
2018-04-11T05:44:00.489Z,3720.00
2018-04-11T05:45:00.490Z,3776.00
2018-04-11T05:46:00.486Z,3824.00
2018-04-11T05:47:00.477Z,3876.00
2018-04-11T05:48:00.517Z,3928.00
2018-04-11T05:49:00.466Z,3980.00
2018-04-11T05:50:00.472Z,4040.00
2018-04-11T05:51:00.449Z,4092.00
2018-04-11T05:52:00.457Z,4140.00
2018-04-11T05:53:00.470Z,4200.00
2018-04-11T05:54:00.442Z,4248.00
2018-04-11T05:55:00.429Z,4304.00
2018-04-11T05:56:00.421Z,4372.00
2018-04-11T05:57:00.414Z,4436.00
2018-04-11T05:58:00.415Z,4504.00
2018-04-11T05:59:00.393Z,4572.00
2018-04-11T06:00:00.393Z,4628.00
2018-04-11T06:01:00.390Z,4684.00
2018-04-11T06:02:00.373Z,4740.00
2018-04-11T06:03:00.370Z,4780.00
2018-04-11T06:04:00.364Z,4824.00
2018-04-11T06:05:00.350Z,4872.00
2018-04-11T06:06:00.394Z,4928.00
2018-04-11T06:07:00.351Z,4996.00
2018-04-11T06:08:00.348Z,5064.00
2018-04-11T06:09:00.329Z,5132.00
2018-04-11T06:10:00.331Z,5208.00
2018-04-11T06:11:00.338Z,5268.00
2018-04-11T06:12:00.323Z,5340.00
2018-04-11T06:13:00.327Z,5408.00
2018-04-11T06:14:00.308Z,5480.00
2018-04-11T06:15:00.309Z,5544.00
2018-04-11T06:16:00.295Z,5620.00
2018-04-11T06:17:00.305Z,5688.00
2018-04-11T06:18:00.290Z,5756.00
2018-04-11T06:19:00.273Z,5836.00
2018-04-11T06:20:00.348Z,5904.00
2018-04-11T06:21:00.275Z,5956.00
2018-04-11T06:22:00.279Z,6000.00
2018-04-11T06:23:00.315Z,6052.00
2018-04-11T06:24:00.258Z,6072.00
2018-04-11T06:25:00.253Z,6108.00
2018-04-11T06:26:00.246Z,6144.00
2018-04-11T06:27:00.245Z,6208.00
2018-04-11T06:28:00.245Z,6280.00
2018-04-11T06:29:00.239Z,6304.00
2018-04-11T06:30:00.229Z,6364.00
2018-04-11T06:31:00.261Z,6368.00
2018-04-11T06:32:00.215Z,6400.00
2018-04-11T06:33:00.219Z,6444.00
2018-04-11T06:34:00.206Z,6520.00
2018-04-11T06:35:00.216Z,6560.00
2018-04-11T06:36:00.207Z,6620.00
2018-04-11T06:37:00.195Z,6660.00
2018-04-11T06:38:00.185Z,6724.00
2018-04-11T06:39:00.227Z,6792.00
2018-04-11T06:40:00.186Z,6848.00
2018-04-11T06:41:00.174Z,6936.00
2018-04-11T06:42:00.209Z,6992.00
2018-04-11T06:43:00.174Z,7024.00
2018-04-11T06:44:00.166Z,7044.00
2018-04-11T06:45:00.163Z,7056.00
2018-04-11T06:46:00.168Z,7068.00
2018-04-11T06:47:00.167Z,7092.00
2018-04-11T06:48:00.164Z,7128.00
2018-04-11T06:49:00.149Z,7168.00
2018-04-11T06:50:00.144Z,7208.00
2018-04-11T06:51:00.144Z,7220.00
2018-04-11T06:52:00.140Z,7240.00
2018-04-11T06:53:00.142Z,7300.00
2018-04-11T06:54:00.127Z,7348.00
2018-04-11T06:55:00.135Z,7360.00
2018-04-11T06:56:00.135Z,7388.00
2018-04-11T06:57:00.127Z,7444.00
2018-04-11T06:58:00.123Z,7448.00
2018-04-11T06:59:00.114Z,7464.00
2018-04-11T07:00:00.130Z,7512.00
2018-04-11T07:01:00.121Z,7540.00
2018-04-11T07:02:00.118Z,7580.00
2018-04-11T07:03:00.113Z,7600.00
2018-04-11T07:04:00.097Z,7628.00
2018-04-11T07:05:00.113Z,7640.00
2018-04-11T07:06:00.104Z,7664.00
2018-04-11T07:07:00.101Z,7676.00
2018-04-11T07:08:00.095Z,7724.00
2018-04-11T07:09:00.098Z,7760.00
2018-04-11T07:10:00.097Z,7728.00
2018-04-11T07:11:00.091Z,7724.00
2018-04-11T07:12:00.087Z,7720.00
2018-04-11T07:13:00.088Z,7716.00
2018-04-11T07:14:00.071Z,7712.00
2018-04-11T07:15:00.080Z,7696.00
2018-04-11T07:16:00.063Z,7712.00
2018-04-11T07:17:00.071Z,7740.00
2018-04-11T07:18:00.072Z,7732.00
2018-04-11T07:19:00.067Z,7744.00
2018-04-11T07:20:00.071Z,7756.00
2018-04-11T07:21:00.069Z,7788.00
2018-04-11T07:22:00.065Z,7828.00
2018-04-11T07:23:00.066Z,7876.00
2018-04-11T07:24:00.060Z,7904.00
2018-04-11T07:25:00.052Z,7964.00
2018-04-11T07:26:00.111Z,8100.00
2018-04-11T07:27:00.056Z,8632.00
2018-04-11T07:28:00.056Z,9768.00
2018-04-11T07:29:00.040Z,13252.00
2018-04-11T07:30:00.049Z,20992.00
2018-04-11T07:31:00.040Z,28512.00
2018-04-11T07:32:00.049Z,30048.00
2018-04-11T07:33:00.050Z,30304.00
2018-04-11T07:34:00.038Z,32480.00
2018-04-11T07:35:00.050Z,33248.00
2018-04-11T07:36:00.046Z,33120.00
2018-04-11T07:37:00.047Z,32320.00
2018-04-11T07:38:00.047Z,32352.00
2018-04-11T07:39:00.048Z,33792.00
2018-04-11T07:40:00.056Z,35136.00
2018-04-11T07:41:00.080Z,36032.00
2018-04-11T07:42:00.072Z,34848.00
2018-04-11T07:43:00.083Z,34176.00
2018-04-11T07:44:00.078Z,34592.00
2018-04-11T07:45:00.094Z,36064.00
2018-04-11T07:46:00.169Z,35936.00
2018-04-11T07:47:00.107Z,35968.00
2018-04-11T07:48:00.110Z,35840.00
2018-04-11T07:49:00.115Z,37312.00
2018-04-11T07:50:00.132Z,37280.00
2018-04-11T07:51:00.136Z,35776.00
2018-04-11T07:52:00.143Z,36608.00
2018-04-11T07:53:00.154Z,38784.00
2018-04-11T07:54:00.169Z,38944.00
2018-04-11T07:55:00.183Z,38368.00
2018-04-11T07:56:00.185Z,39584.00
2018-04-11T07:57:00.200Z,40736.00
2018-04-11T07:58:00.208Z,41920.00
2018-04-11T07:59:00.244Z,43008.00
2018-04-11T08:00:00.228Z,40192.00
2018-04-11T08:01:00.252Z,40768.00
2018-04-11T08:02:00.254Z,43232.00
2018-04-11T08:03:00.279Z,44256.00
2018-04-11T08:04:00.275Z,42784.00
2018-04-11T08:05:00.284Z,41952.00
2018-04-11T08:06:00.303Z,42720.00
2018-04-11T08:07:00.300Z,41920.00
2018-04-11T08:08:00.331Z,44352.00
2018-04-11T08:09:00.355Z,44544.00
2018-04-11T08:10:00.390Z,42720.00
2018-04-11T08:11:00.360Z,44672.00
2018-04-11T08:12:00.380Z,44160.00
2018-04-11T08:13:00.391Z,44576.00
2018-04-11T08:14:00.407Z,44832.00
2018-04-11T08:15:00.413Z,45728.00
2018-04-11T08:16:00.447Z,43936.00
2018-04-11T08:17:00.454Z,48352.00
2018-04-11T08:18:00.464Z,50336.00
2018-04-11T08:19:00.477Z,47264.00
2018-04-11T08:20:00.495Z,51040.00
2018-04-11T08:21:00.505Z,51424.00
2018-04-11T08:22:00.516Z,48448.00
2018-04-11T08:23:00.528Z,41920.00
2018-04-11T08:24:00.541Z,45088.00
2018-04-11T08:25:00.556Z,44192.00
2018-04-11T08:26:00.576Z,44064.00
2018-04-11T08:27:00.592Z,41056.00
2018-04-11T08:28:00.600Z,45568.00
2018-04-11T08:29:00.603Z,58112.00
2018-04-11T08:30:00.626Z,59136.00
2018-04-11T08:31:00.647Z,59744.00
2018-04-11T08:32:00.683Z,59264.00
2018-04-11T08:33:00.676Z,63232.00
2018-04-11T08:34:00.677Z,62976.00
2018-04-11T08:35:00.700Z,58688.00
2018-04-11T08:36:00.712Z,62944.00
2018-04-11T08:37:00.726Z,62112.00
2018-04-11T08:38:00.742Z,63584.00
2018-04-11T08:39:00.754Z,63712.00
2018-04-11T08:40:00.771Z,65152.00
2018-04-11T08:41:00.783Z,54400.00
2018-04-11T08:42:00.798Z,65088.00
2018-04-11T08:43:00.805Z,68512.00
2018-04-11T08:44:00.822Z,66432.00
2018-04-11T08:45:00.834Z,71264.00
2018-04-11T08:46:00.856Z,73984.00
2018-04-11T08:47:00.866Z,70432.00
2018-04-11T08:48:00.882Z,63072.00
2018-04-11T08:49:00.895Z,72064.00
2018-04-11T08:50:00.915Z,62944.00
2018-04-11T08:51:00.930Z,69760.00
2018-04-11T08:52:00.933Z,73824.00
2018-04-11T08:53:00.954Z,75104.00
2018-04-11T08:54:00.966Z,76832.00
2018-04-11T08:55:00.983Z,78528.00
2018-04-11T08:56:00.988Z,80704.00
2018-04-11T08:57:01.013Z,79968.00
2018-04-11T08:58:01.035Z,78560.00
2018-04-11T08:59:01.041Z,79136.00
2018-04-11T09:00:01.108Z,82464.00
2018-04-11T09:01:01.073Z,85824.00
2018-04-11T09:02:01.088Z,87872.00
2018-04-11T09:03:01.103Z,84736.00
2018-04-11T09:04:01.132Z,86304.00
2018-04-11T09:05:01.152Z,86656.00
2018-04-11T09:06:01.148Z,86176.00
2018-04-11T09:07:01.164Z,82528.00
2018-04-11T09:08:01.182Z,72224.00
2018-04-11T09:09:01.200Z,71744.00
2018-04-11T09:10:01.205Z,84992.00
2018-04-11T09:11:01.236Z,73504.00
2018-04-11T09:12:01.249Z,83072.00
2018-04-11T09:13:01.265Z,68480.00
2018-04-11T09:14:01.275Z,70848.00
2018-04-11T09:15:01.309Z,64352.00
2018-04-11T09:16:01.318Z,85568.00
2018-04-11T09:17:01.338Z,76736.00
2018-04-11T09:18:01.347Z,81632.00
2018-04-11T09:19:01.356Z,61440.00
2018-04-11T09:20:01.385Z,61728.00
2018-04-11T09:21:01.390Z,71456.00
2018-04-11T09:22:01.410Z,81824.00
2018-04-11T09:23:01.427Z,93248.00
2018-04-11T09:24:01.431Z,94688.00
2018-04-11T09:25:01.468Z,92384.00
2018-04-11T09:26:01.465Z,106208.00
2018-04-11T09:27:01.486Z,99040.00
2018-04-11T09:28:01.501Z,86944.00
2018-04-11T09:29:01.517Z,81184.00
2018-04-11T09:30:01.541Z,52192.00
2018-04-11T09:31:01.553Z,49408.00
2018-04-11T09:32:01.565Z,56608.00
2018-04-11T09:33:01.615Z,64192.00
2018-04-11T09:34:01.589Z,71360.00
2018-04-11T09:35:01.614Z,57184.00
2018-04-11T09:36:01.629Z,58560.00
2018-04-11T09:37:01.644Z,65504.00
2018-04-11T09:38:01.664Z,71744.00
2018-04-11T09:39:01.672Z,90624.00
2018-04-11T09:40:01.691Z,89664.00
2018-04-11T09:41:01.702Z,91808.00
2018-04-11T09:42:01.717Z,92800.00
2018-04-11T09:43:01.755Z,90112.00
2018-04-11T09:44:01.742Z,75264.00
2018-04-11T09:45:01.768Z,88736.00
2018-04-11T09:46:01.775Z,89664.00
2018-04-11T09:47:01.793Z,92352.00
2018-04-11T09:48:01.815Z,96032.00
2018-04-11T09:49:01.831Z,96160.00
2018-04-11T09:50:01.836Z,98112.00
2018-04-11T09:51:01.862Z,100768.00
2018-04-11T09:52:01.876Z,98016.00
2018-04-11T09:53:01.894Z,95968.00
2018-04-11T09:54:01.915Z,96384.00
2018-04-11T09:55:01.931Z,94880.00
2018-04-11T09:56:01.940Z,93664.00
2018-04-11T09:57:01.963Z,92640.00
2018-04-11T09:58:01.979Z,92640.00
2018-04-11T09:59:01.984Z,91616.00
2018-04-11T10:00:02.012Z,91136.00
2018-04-11T10:01:02.027Z,91776.00
2018-04-11T10:02:02.038Z,92032.00
2018-04-11T10:03:02.065Z,90208.00
2018-04-11T10:04:02.074Z,89472.00
2018-04-11T10:05:02.117Z,88608.00
2018-04-11T10:06:02.120Z,85024.00
2018-04-11T10:07:02.134Z,84224.00
2018-04-11T10:08:02.148Z,85696.00
2018-04-11T10:09:02.165Z,85344.00
2018-04-11T10:10:02.182Z,85344.00
2018-04-11T10:11:02.195Z,85312.00
2018-04-11T10:12:02.210Z,84256.00
2018-04-11T10:13:02.236Z,85088.00
2018-04-11T10:14:02.244Z,85632.00
2018-04-11T10:15:02.262Z,88512.00
2018-04-11T10:16:02.280Z,89152.00
2018-04-11T10:17:02.296Z,87424.00
2018-04-11T10:18:02.314Z,87104.00
2018-04-11T10:19:02.383Z,85824.00
2018-04-11T10:20:02.351Z,83552.00
2018-04-11T10:21:02.372Z,86240.00
2018-04-11T10:22:02.388Z,88192.00
2018-04-11T10:23:02.399Z,89408.00
2018-04-11T10:24:02.421Z,87872.00
2018-04-11T10:25:02.436Z,88704.00
2018-04-11T10:26:02.450Z,88576.00
2018-04-11T10:27:02.472Z,86528.00
2018-04-11T10:28:02.484Z,87840.00
2018-04-11T10:29:02.509Z,88064.00
2018-04-11T10:30:02.517Z,86528.00
2018-04-11T10:31:02.537Z,86432.00
2018-04-11T10:32:02.578Z,87840.00
2018-04-11T10:33:02.580Z,85216.00
2018-04-11T10:34:02.591Z,84448.00
2018-04-11T10:35:02.604Z,84032.00
2018-04-11T10:36:02.625Z,82336.00
2018-04-11T10:37:02.658Z,82720.00
2018-04-11T10:38:02.658Z,80992.00
2018-04-11T10:39:02.680Z,80352.00
2018-04-11T10:40:02.691Z,77504.00
2018-04-11T10:41:02.707Z,78688.00
2018-04-11T10:42:02.722Z,81056.00
2018-04-11T10:43:02.757Z,79616.00
2018-04-11T10:44:02.763Z,77888.00
2018-04-11T10:45:02.778Z,78080.00
2018-04-11T10:46:02.787Z,78720.00
2018-04-11T10:47:02.808Z,78112.00
2018-04-11T10:48:02.832Z,78304.00
2018-04-11T10:49:02.845Z,80192.00
2018-04-11T10:50:02.856Z,80320.00
2018-04-11T10:51:02.879Z,76640.00
2018-04-11T10:52:02.899Z,74496.00
2018-04-11T10:53:02.913Z,76480.00
2018-04-11T10:54:02.923Z,82848.00
2018-04-11T10:55:02.949Z,83456.00
2018-04-11T10:56:02.963Z,79392.00
2018-04-11T10:57:02.974Z,79904.00
2018-04-11T10:58:03.003Z,80064.00
2018-04-11T10:59:02.995Z,78400.00
2018-04-11T11:00:03.021Z,78624.00
2018-04-11T11:01:03.040Z,78976.00
2018-04-11T11:02:03.062Z,81568.00
2018-04-11T11:03:03.079Z,82848.00
2018-04-11T11:04:03.105Z,83264.00
2018-04-11T11:05:03.117Z,82912.00
2018-04-11T11:06:03.127Z,83168.00
2018-04-11T11:07:03.146Z,78848.00
2018-04-11T11:08:03.159Z,80928.00
2018-04-11T11:09:03.164Z,82944.00
2018-04-11T11:10:03.189Z,83840.00
2018-04-11T11:11:03.199Z,85376.00
2018-04-11T11:12:03.219Z,83904.00
2018-04-11T11:13:03.238Z,82496.00
2018-04-11T11:14:03.246Z,77920.00
2018-04-11T11:15:03.264Z,77536.00
2018-04-11T11:16:03.291Z,79232.00
2018-04-11T11:17:03.300Z,80672.00
2018-04-11T11:18:03.315Z,80608.00
2018-04-11T11:19:03.335Z,81344.00
2018-04-11T11:20:03.352Z,82272.00
2018-04-11T11:21:03.364Z,85120.00
2018-04-11T11:22:03.373Z,90880.00
2018-04-11T11:23:03.404Z,92192.00
2018-04-11T11:24:03.410Z,91168.00
2018-04-11T11:25:03.418Z,94656.00
2018-04-11T11:26:03.438Z,97920.00
2018-04-11T11:27:03.450Z,99264.00
2018-04-11T11:28:03.475Z,100832.00
2018-04-11T11:29:03.486Z,101696.00
2018-04-11T11:30:03.494Z,100416.00
2018-04-11T11:31:03.514Z,101120.00
2018-04-11T11:32:03.544Z,103392.00
2018-04-11T11:33:03.542Z,103648.00
2018-04-11T11:34:03.569Z,103424.00
2018-04-11T11:35:03.568Z,101440.00
2018-04-11T11:36:03.591Z,99680.00
2018-04-11T11:37:03.605Z,99232.00
2018-04-11T11:38:03.624Z,101792.00
2018-04-11T11:39:03.643Z,103360.00
2018-04-11T11:40:03.655Z,102144.00
2018-04-11T11:41:03.662Z,99136.00
2018-04-11T11:42:03.689Z,101888.00
2018-04-11T11:43:03.704Z,104224.00
2018-04-11T11:44:03.718Z,103392.00
2018-04-11T11:45:03.739Z,101824.00
2018-04-11T11:46:03.749Z,99520.00
2018-04-11T11:47:03.769Z,96576.00
2018-04-11T11:48:03.780Z,95552.00
2018-04-11T11:49:03.795Z,99296.00
2018-04-11T11:50:03.815Z,103008.00
2018-04-11T11:51:03.825Z,102880.00
2018-04-11T11:52:03.924Z,101472.00
2018-04-11T11:53:03.876Z,101344.00
2018-04-11T11:54:03.878Z,100928.00
2018-04-11T11:55:03.886Z,102240.00
2018-04-11T11:56:03.915Z,100640.00
2018-04-11T11:57:03.943Z,100032.00
2018-04-11T11:58:03.949Z,97312.00
2018-04-11T11:59:03.963Z,90368.00
2018-04-11T12:00:03.980Z,79808.00
2018-04-11T12:01:03.994Z,71424.00
2018-04-11T12:02:04.007Z,71168.00
2018-04-11T12:03:04.019Z,74432.00
2018-04-11T12:04:04.040Z,75040.00
2018-04-11T12:05:04.040Z,72768.00
2018-04-11T12:06:04.075Z,74272.00
2018-04-11T12:07:04.096Z,81376.00
2018-04-11T12:08:04.141Z,85376.00
2018-04-11T12:09:04.113Z,89184.00
2018-04-11T12:10:04.136Z,94208.00
2018-04-11T12:11:04.147Z,95168.00
2018-04-11T12:12:04.176Z,95904.00
2018-04-11T12:13:04.184Z,97344.00
2018-04-11T12:14:04.196Z,95872.00
2018-04-11T12:15:04.205Z,96864.00
2018-04-11T12:16:04.233Z,94624.00
2018-04-11T12:17:04.250Z,95712.00
2018-04-11T12:18:04.264Z,96704.00
2018-04-11T12:19:04.268Z,94976.00
2018-04-11T12:20:04.293Z,90560.00
2018-04-11T12:21:04.311Z,90880.00
2018-04-11T12:22:04.323Z,92480.00
2018-04-11T12:23:04.366Z,91136.00
2018-04-11T12:24:04.362Z,60224.00
2018-04-11T12:25:04.424Z,14284.00
2018-04-11T12:26:04.379Z,8120.00
2018-04-11T12:27:04.406Z,7472.00
2018-04-11T12:28:04.414Z,7072.00
2018-04-11T12:29:04.427Z,6780.00
2018-04-11T12:30:04.437Z,6696.00
2018-04-11T12:31:04.447Z,6760.00
2018-04-11T12:32:04.494Z,6900.00
2018-04-11T12:33:04.475Z,6960.00
2018-04-11T12:34:04.492Z,7064.00
2018-04-11T12:35:04.503Z,6976.00
2018-04-11T12:36:04.503Z,6812.00
2018-04-11T12:37:04.509Z,6780.00
2018-04-11T12:38:04.523Z,6816.00
2018-04-11T12:39:04.508Z,6872.00
2018-04-11T12:40:04.527Z,6672.00
2018-04-11T12:41:04.540Z,6568.00
2018-04-11T12:42:04.550Z,6620.00
2018-04-11T12:43:04.559Z,6668.00
2018-04-11T12:44:04.548Z,6708.00
2018-04-11T12:45:04.566Z,6844.00
2018-04-11T12:46:04.579Z,6784.00
2018-04-11T12:47:04.570Z,6512.00
2018-04-11T12:48:04.572Z,6296.00
2018-04-11T12:49:04.573Z,6072.00
2018-04-11T12:50:04.576Z,6020.00
2018-04-11T12:51:04.586Z,6052.00
2018-04-11T12:52:04.589Z,6100.00
2018-04-11T12:53:04.582Z,6156.00
2018-04-11T12:54:04.581Z,6196.00
2018-04-11T12:55:04.599Z,6228.00
2018-04-11T12:56:04.599Z,6232.00
2018-04-11T12:57:04.604Z,6208.00
2018-04-11T12:58:04.601Z,6216.00
2018-04-11T12:59:04.595Z,6240.00
2018-04-11T13:00:04.604Z,6260.00
2018-04-11T13:01:04.645Z,6280.00
2018-04-11T13:02:04.613Z,6260.00
2018-04-11T13:03:04.608Z,6232.00
2018-04-11T13:04:04.612Z,6156.00
2018-04-11T13:05:04.605Z,6052.00
2018-04-11T13:06:04.614Z,5984.00
2018-04-11T13:07:04.617Z,5928.00
2018-04-11T13:08:04.621Z,6028.00
2018-04-11T13:09:04.622Z,6404.00
2018-04-11T13:10:04.621Z,6580.00
2018-04-11T13:11:04.617Z,6636.00
2018-04-11T13:12:04.616Z,6644.00
2018-04-11T13:13:04.623Z,6568.00
2018-04-11T13:14:04.622Z,6524.00
2018-04-11T13:15:04.625Z,6432.00
2018-04-11T13:16:04.618Z,6328.00
2018-04-11T13:17:04.626Z,6220.00
2018-04-11T13:18:04.622Z,6180.00
2018-04-11T13:19:04.619Z,6144.00
2018-04-11T13:20:04.621Z,6116.00
2018-04-11T13:21:04.628Z,6128.00
2018-04-11T13:22:04.662Z,6116.00
2018-04-11T13:23:04.631Z,6168.00
2018-04-11T13:24:04.627Z,6244.00
2018-04-11T13:25:04.632Z,6404.00
2018-04-11T13:26:04.633Z,6416.00
2018-04-11T13:27:04.631Z,6412.00
2018-04-11T13:28:04.643Z,6492.00
2018-04-11T13:29:04.622Z,6156.00
2018-04-11T13:30:04.638Z,5956.00
2018-04-11T13:31:04.634Z,6544.00
2018-04-11T13:32:04.630Z,6456.00
2018-04-11T13:33:04.636Z,6536.00
2018-04-11T13:34:04.633Z,6600.00
2018-04-11T13:35:04.662Z,6596.00
2018-04-11T13:36:04.643Z,6624.00
2018-04-11T13:37:04.644Z,6824.00